KDVK

Stuart Powell Field Airport

Danville, Kentucky, USA
METAR KDVK 210415Z AUTO 21007KT 10SM OVC055 07/02 A3016 RMK AO2
Observed Flight Rules
Jan-21 @ 04:15 UTC (26 minutes ago) Visual Flight Rules
Wind Visibility Clouds
210° at 7 knots 10 miles
  • Overcast at 5,500' AGL
Temperatures Readings
Current 7°C / 45°F
Dewpoint 2°C / 36°F
Humidity 71%
Altimeter 30.16" Hg
Pressure 1021 hPa
Elevation 312
METAR KDVK 210415Z AUTO 21007KT 10SM OVC055 07/02 A3016 RMK AO2
Observed Flight Rules
Jan-21 @ 04:15 UTC
(26 minutes ago)
VFR
Wind Visibility
210° at 7 knots 10 miles
Clouds
  • Overcast at 5,500' AGL
Temperature Dewpoint
7°C / 45°F 2°C / 36°F
Humidity Altimeter Pressure
71% 30.16" Hg 1021 hPa